createdAt,value
2018-02-05T00:00:03.033Z,9.45
2018-02-05T00:02:30.482Z,9.18
2018-02-05T00:04:57.933Z,9.73
2018-02-05T00:07:26.192Z,9.20
2018-02-05T00:09:54.384Z,10.60
2018-02-05T00:12:21.866Z,10.80
2018-02-05T00:14:49.332Z,10.18
2018-02-05T00:17:16.790Z,9.43
2018-02-05T00:19:45.273Z,10.18
2018-02-05T00:22:14.686Z,8.85
2018-02-05T00:24:43.095Z,8.43
2018-02-05T00:27:10.681Z,10.20
2018-02-05T00:29:38.131Z,10.02
2018-02-05T00:32:05.595Z,10.68
2018-02-05T00:34:33.043Z,9.10
2018-02-05T00:37:00.532Z,9.70
2018-02-05T00:39:27.990Z,10.75
2018-02-05T00:41:55.479Z,10.02
2018-02-05T00:44:22.907Z,9.75
2018-02-05T00:46:50.375Z,11.48
2018-02-05T00:49:17.808Z,11.12
2018-02-05T00:51:45.263Z,9.98
2018-02-05T00:54:12.720Z,9.80
2018-02-05T00:56:40.200Z,10.25
2018-02-05T00:59:07.639Z,10.23
2018-02-05T01:01:35.943Z,10.60
2018-02-05T01:04:03.440Z,11.38
2018-02-05T01:06:31.005Z,11.45
2018-02-05T01:08:58.467Z,10.68
2018-02-05T01:11:26.726Z,9.15
2018-02-05T01:13:54.186Z,10.00
2018-02-05T01:16:21.632Z,11.57
2018-02-05T01:18:49.858Z,10.57
2018-02-05T01:21:17.368Z,10.82
2018-02-05T01:23:45.583Z,11.02
2018-02-05T01:26:13.050Z,10.00
2018-02-05T01:28:40.487Z,11.05
2018-02-05T01:31:07.980Z,10.45
2018-02-05T01:33:36.321Z,10.40
2018-02-05T01:36:03.754Z,12.27
2018-02-05T01:38:31.240Z,9.52
2018-02-05T01:40:58.698Z,10.00
2018-02-05T01:43:26.172Z,10.40
2018-02-05T01:45:53.634Z,10.65
2018-02-05T01:48:21.792Z,10.68
2018-02-05T01:50:49.255Z,9.90
2018-02-05T01:53:16.716Z,11.00
2018-02-05T01:55:44.274Z,9.77
2018-02-05T01:58:11.730Z,10.43
2018-02-05T02:00:39.200Z,10.50
2018-02-05T02:03:06.640Z,11.10
2018-02-05T02:05:34.254Z,9.82
2018-02-05T02:08:01.724Z,11.05
2018-02-05T02:10:29.174Z,9.82
2018-02-05T02:12:56.683Z,10.95
2018-02-05T02:15:24.192Z,10.00
2018-02-05T02:17:51.646Z,9.70
2018-02-05T02:20:19.116Z,11.23
2018-02-05T02:22:47.385Z,9.77
2018-02-05T02:25:14.860Z,10.00
2018-02-05T02:27:42.318Z,10.10
2018-02-05T02:30:09.791Z,11.30
2018-02-05T02:32:37.381Z,9.63
2018-02-05T02:35:04.840Z,10.50
2018-02-05T02:37:32.347Z,9.90
2018-02-05T02:39:59.788Z,10.95
2018-02-05T02:42:27.268Z,10.30
2018-02-05T02:44:54.718Z,10.50
2018-02-05T02:47:22.184Z,9.25
2018-02-05T02:49:49.641Z,10.85
2018-02-05T02:52:17.104Z,10.50
2018-02-05T02:54:44.555Z,9.90
2018-02-05T02:57:12.005Z,9.88
2018-02-05T02:59:39.465Z,10.73
2018-02-05T03:02:07.005Z,9.05
2018-02-05T03:04:34.511Z,11.68
2018-02-05T03:07:01.977Z,9.98
2018-02-05T03:09:29.432Z,10.10
2018-02-05T03:11:56.925Z,10.52
2018-02-05T03:14:24.371Z,10.13
2018-02-05T03:16:51.840Z,9.52
2018-02-05T03:19:19.291Z,10.05
2018-02-05T03:21:46.767Z,11.05
2018-02-05T03:24:14.225Z,10.30
2018-02-05T03:26:41.704Z,10.32
2018-02-05T03:29:09.975Z,10.80
2018-02-05T03:31:38.230Z,10.55
2018-02-05T03:34:05.784Z,11.45
2018-02-05T03:36:33.279Z,10.90
2018-02-05T03:39:00.784Z,10.50
2018-02-05T03:41:28.272Z,11.40
2018-02-05T03:43:55.734Z,10.27
2018-02-05T03:46:23.962Z,11.55
2018-02-05T03:48:51.408Z,9.90
2018-02-05T03:51:18.859Z,12.82
2018-02-05T03:53:46.330Z,10.88
2018-02-05T03:56:13.784Z,10.55
2018-02-05T03:58:41.273Z,11.07
2018-02-05T04:01:08.743Z,11.45
2018-02-05T04:03:36.202Z,11.38
2018-02-05T04:06:03.703Z,11.82
2018-02-05T04:08:31.152Z,13.50
2018-02-05T04:10:58.755Z,10.80
2018-02-05T04:13:26.218Z,11.40
2018-02-05T04:15:53.700Z,11.65
2018-02-05T04:18:21.893Z,12.05
2018-02-05T04:20:49.359Z,10.30
2018-02-05T04:23:16.827Z,11.27
2018-02-05T04:25:44.308Z,11.15
2018-02-05T04:28:11.798Z,12.55
2018-02-05T04:30:40.021Z,11.85
2018-02-05T04:33:07.505Z,10.57
2018-02-05T04:35:35.623Z,10.98
2018-02-05T04:38:03.083Z,11.95
2018-02-05T04:40:30.528Z,10.85
2018-02-05T04:42:58.008Z,11.88
2018-02-05T04:45:25.459Z,12.07
2018-02-05T04:47:52.911Z,10.77
2018-02-05T04:50:20.371Z,13.35
2018-02-05T04:52:47.826Z,11.55
2018-02-05T04:55:15.284Z,11.12
2018-02-05T04:57:42.722Z,11.05
2018-02-05T05:00:10.230Z,11.20
2018-02-05T05:02:37.687Z,11.23
2018-02-05T05:05:06.022Z,12.73
2018-02-05T05:07:33.517Z,11.60
2018-02-05T05:10:00.978Z,10.38
2018-02-05T05:12:28.483Z,11.77
2018-02-05T05:14:55.942Z,10.45
2018-02-05T05:17:23.384Z,12.43
2018-02-05T05:19:50.932Z,11.15
2018-02-05T05:22:19.273Z,11.45
2018-02-05T05:24:46.762Z,10.18
2018-02-05T05:27:14.994Z,11.95
2018-02-05T05:29:43.203Z,9.52
2018-02-05T05:32:10.665Z,9.68
2018-02-05T05:34:38.182Z,11.73
2018-02-05T05:37:05.677Z,10.38
2018-02-05T05:39:33.173Z,11.20
2018-02-05T05:42:00.661Z,12.63
2018-02-05T05:44:29.029Z,10.10
2018-02-05T05:46:56.571Z,11.30
2018-02-05T05:49:27.981Z,11.23
2018-02-05T05:51:56.313Z,11.38
2018-02-05T05:54:23.787Z,13.02
2018-02-05T05:56:51.277Z,12.88
2018-02-05T05:59:18.732Z,11.10
2018-02-05T06:01:46.230Z,12.57
2018-02-05T06:04:13.728Z,9.93
2018-02-05T06:06:41.185Z,10.55
2018-02-05T06:09:08.651Z,12.45
2018-02-05T06:11:36.108Z,10.00
2018-02-05T06:14:04.370Z,12.23
2018-02-05T06:16:32.619Z,11.20
2018-02-05T06:19:00.308Z,11.00
2018-02-05T06:21:28.512Z,12.10
2018-02-05T06:23:56.004Z,10.60
2018-02-05T06:26:23.451Z,10.32
2018-02-05T06:28:50.944Z,10.65
2018-02-05T06:31:19.166Z,12.88
2018-02-05T06:33:46.726Z,10.55
2018-02-05T06:39:09.440Z,9.70
2018-02-05T06:41:36.895Z,11.23
2018-02-05T06:44:04.352Z,11.10
2018-02-05T06:46:32.591Z,11.70
2018-02-05T06:49:00.049Z,10.98
2018-02-05T06:51:39.420Z,10.30
2018-02-05T06:54:19.506Z,11.50
2018-02-05T06:56:46.967Z,11.98
2018-02-05T06:59:14.438Z,10.73
2018-02-05T07:01:41.971Z,10.93
2018-02-05T07:04:09.589Z,11.20
2018-02-05T07:06:37.066Z,11.30
2018-02-05T07:09:05.276Z,10.75
2018-02-05T07:11:32.734Z,12.52
2018-02-05T07:14:00.943Z,11.15
2018-02-05T07:16:28.387Z,10.60
2018-02-05T07:18:55.902Z,11.60
2018-02-05T07:21:23.374Z,11.50
2018-02-05T07:23:50.831Z,9.73
2018-02-05T07:26:18.307Z,11.00
2018-02-05T07:28:46.640Z,10.23
2018-02-05T07:31:14.088Z,11.63
2018-02-05T07:33:41.548Z,11.07
2018-02-05T07:36:09.064Z,11.25
2018-02-05T07:38:36.539Z,11.38
2018-02-05T07:41:03.977Z,10.38
2018-02-05T07:43:32.299Z,10.93
2018-02-05T07:46:00.529Z,9.57
2018-02-05T07:48:28.030Z,11.90
2018-02-05T07:50:55.504Z,11.10
2018-02-05T07:53:23.016Z,11.68
2018-02-05T07:55:50.525Z,11.02
2018-02-05T07:58:18.020Z,12.10
2018-02-05T08:00:45.480Z,11.23
2018-02-05T08:03:12.916Z,11.65
2018-02-05T08:05:40.402Z,10.90
2018-02-05T08:08:07.907Z,11.25
2018-02-05T08:10:35.400Z,10.75
2018-02-05T08:13:02.956Z,10.90
2018-02-05T08:15:30.416Z,9.70
2018-02-05T08:17:57.873Z,11.10
2018-02-05T08:20:25.381Z,10.32
2018-02-05T08:22:53.028Z,10.55
2018-02-05T08:25:20.467Z,10.90
2018-02-05T08:27:47.946Z,10.80
2018-02-05T08:30:15.487Z,11.50
2018-02-05T08:32:43.104Z,11.50
2018-02-05T08:35:10.597Z,11.80
2018-02-05T08:37:38.162Z,11.18
2018-02-05T08:40:05.628Z,11.25
2018-02-05T08:42:33.236Z,12.50
2018-02-05T08:45:00.804Z,10.88
2018-02-05T08:47:28.372Z,9.75
2018-02-05T08:49:55.872Z,10.75
2018-02-05T08:52:23.612Z,11.20
2018-02-05T08:54:51.297Z,11.50
2018-02-05T08:57:18.764Z,11.95
2018-02-05T08:59:46.225Z,11.20
2018-02-05T09:02:13.688Z,11.65
2018-02-05T09:04:41.167Z,11.85
2018-02-05T09:07:08.761Z,11.93
2018-02-05T09:09:37.031Z,12.57
2018-02-05T09:12:05.278Z,10.57
2018-02-05T09:14:33.231Z,13.10
2018-02-05T09:17:00.728Z,10.50
2018-02-05T09:19:28.971Z,8.05
2018-02-05T09:21:57.151Z,10.68
2018-02-05T09:24:25.058Z,9.80
2018-02-05T09:26:53.323Z,9.20
2018-02-05T09:29:20.787Z,9.93
2018-02-05T09:31:48.505Z,9.63
2018-02-05T09:34:16.009Z,9.85
2018-02-05T09:36:43.542Z,9.60
2018-02-05T09:39:11.150Z,9.75
2018-02-05T09:41:38.630Z,8.90
2018-02-05T09:44:06.128Z,10.88
2018-02-05T09:46:34.359Z,9.35
2018-02-05T09:49:01.816Z,9.10
2018-02-05T09:51:29.272Z,9.55
2018-02-05T09:53:57.237Z,9.85
2018-02-05T09:56:24.687Z,9.45
2018-02-05T09:58:52.150Z,10.20
2018-02-05T10:01:19.604Z,9.30
2018-02-05T10:03:47.073Z,9.90
2018-02-05T10:06:14.536Z,9.93
2018-02-05T10:08:41.976Z,10.32
2018-02-05T10:11:09.448Z,9.35
2018-02-05T10:13:36.907Z,9.85
2018-02-05T10:16:04.403Z,10.52
2018-02-05T10:18:31.852Z,9.13
2018-02-05T10:20:59.318Z,9.10
2018-02-05T10:23:26.788Z,9.50
2018-02-05T10:25:54.289Z,9.20
2018-02-05T10:28:21.791Z,9.70
2018-02-05T10:30:49.313Z,8.90
2018-02-05T10:33:17.547Z,9.30
2018-02-05T10:35:45.132Z,9.90
2018-02-05T10:38:12.604Z,9.48
2018-02-05T10:40:40.811Z,9.20
2018-02-05T10:43:08.266Z,8.10
2018-02-05T10:45:35.708Z,9.45
2018-02-05T10:48:06.699Z,9.60
2018-02-05T10:50:34.203Z,9.45
2018-02-05T10:53:02.420Z,9.00
2018-02-05T10:55:31.134Z,8.30
2018-02-05T10:57:58.650Z,7.97
2018-02-05T11:00:26.128Z,9.93
2018-02-05T11:02:53.591Z,9.13
2018-02-05T11:05:21.189Z,8.85
2018-02-05T11:07:50.289Z,9.70
2018-02-05T11:10:18.595Z,9.18
2018-02-05T11:12:46.064Z,8.80
2018-02-05T11:15:13.538Z,8.50
2018-02-05T11:17:40.984Z,9.13
2018-02-05T11:20:08.495Z,8.43
2018-02-05T11:22:36.063Z,8.40
2018-02-05T11:25:03.480Z,7.90
2018-02-05T11:27:30.931Z,8.65
2018-02-05T11:29:58.408Z,7.72
2018-02-05T11:32:26.664Z,8.25
2018-02-05T11:34:54.143Z,8.85
2018-02-05T11:37:21.616Z,8.35
2018-02-05T11:39:49.233Z,8.63
2018-02-05T11:42:16.736Z,8.43
2018-02-05T11:44:44.210Z,6.68
2018-02-05T11:47:11.701Z,8.35
2018-02-05T11:49:39.186Z,7.22
2018-02-05T11:52:07.427Z,6.87
2018-02-05T11:54:34.866Z,7.80
2018-02-05T11:57:02.359Z,7.20
2018-02-05T11:59:30.578Z,7.70
2018-02-05T12:01:58.064Z,6.18
2018-02-05T12:04:25.558Z,6.12
2018-02-05T12:06:53.014Z,7.47
2018-02-05T12:09:21.247Z,6.47
2018-02-05T12:11:48.719Z,5.60
2018-02-05T12:14:16.205Z,5.10
2018-02-05T12:16:43.668Z,6.72
2018-02-05T12:19:11.139Z,5.10
2018-02-05T12:21:38.622Z,4.78
2018-02-05T12:24:06.543Z,3.70
2018-02-05T12:26:33.984Z,4.20
2018-02-05T12:29:02.219Z,5.05
2018-02-05T12:31:30.415Z,4.37
2018-02-05T12:33:58.760Z,4.62
2018-02-05T12:36:26.209Z,5.45
2018-02-05T12:38:53.713Z,4.53
2018-02-05T12:41:21.183Z,4.82
2018-02-05T12:43:49.414Z,4.47
2018-02-05T12:46:16.877Z,4.85
2018-02-05T12:48:44.331Z,4.70
2018-02-05T12:51:18.339Z,4.30
2018-02-05T12:53:45.993Z,4.30
2018-02-05T12:56:13.513Z,4.45
2018-02-05T12:58:40.990Z,4.50
2018-02-05T13:01:09.393Z,4.05
2018-02-05T13:03:44.581Z,3.70
2018-02-05T13:06:16.349Z,4.03
2018-02-05T13:08:43.837Z,3.75
2018-02-05T13:11:11.299Z,3.47
2018-02-05T13:13:39.632Z,3.22
2018-02-05T13:16:07.076Z,3.78
2018-02-05T13:18:35.436Z,3.50
2018-02-05T13:21:03.657Z,3.55
2018-02-05T13:23:31.163Z,3.53
2018-02-05T13:25:58.650Z,3.30
2018-02-05T13:28:26.166Z,3.25
2018-02-05T13:30:53.618Z,3.20
2018-02-05T13:33:21.086Z,3.58
2018-02-05T13:35:48.568Z,3.72
2018-02-05T13:38:22.017Z,3.90
2018-02-05T13:40:49.491Z,4.05
2018-02-05T13:43:16.952Z,3.80
2018-02-05T13:45:44.439Z,3.67
2018-02-05T13:48:11.885Z,3.50
2018-02-05T13:50:39.379Z,3.70
2018-02-05T13:53:06.861Z,4.22
2018-02-05T13:55:34.295Z,3.37
2018-02-05T13:58:01.748Z,3.35
2018-02-05T14:00:29.223Z,3.35
2018-02-05T14:02:56.675Z,3.42
2018-02-05T14:05:24.191Z,3.60
2018-02-05T14:07:51.652Z,3.95
2018-02-05T14:10:19.149Z,3.10
2018-02-05T14:12:46.682Z,4.05
2018-02-05T14:15:14.135Z,4.18
2018-02-05T14:17:41.561Z,3.53
2018-02-05T14:20:09.791Z,3.10
2018-02-05T14:22:37.239Z,3.75
2018-02-05T14:25:04.724Z,4.03
2018-02-05T14:27:32.230Z,4.05
2018-02-05T14:29:59.684Z,4.47
2018-02-05T14:32:27.162Z,4.35
2018-02-05T14:34:54.626Z,4.45
2018-02-05T14:37:22.175Z,5.70
2018-02-05T14:39:49.618Z,6.65
2018-02-05T14:42:17.128Z,7.45
2018-02-05T14:44:44.587Z,7.53
2018-02-05T14:47:12.067Z,7.50
2018-02-05T14:49:40.291Z,7.75
2018-02-05T14:52:07.769Z,7.10
2018-02-05T14:54:35.241Z,8.25
2018-02-05T14:57:02.672Z,11.25
2018-02-05T14:59:30.156Z,7.22
2018-02-05T15:01:57.578Z,7.85
2018-02-05T15:04:25.072Z,8.13
2018-02-05T15:06:53.297Z,8.20
2018-02-05T15:09:20.757Z,8.23
2018-02-05T15:11:48.200Z,7.60
2018-02-05T15:14:16.220Z,8.75
2018-02-05T15:16:43.679Z,7.82
2018-02-05T15:19:11.905Z,7.45
2018-02-05T15:21:39.368Z,7.40
2018-02-05T15:24:06.812Z,8.95
2018-02-05T15:26:34.371Z,7.70
2018-02-05T15:29:01.844Z,8.05
2018-02-05T15:31:29.306Z,8.10
2018-02-05T15:33:56.797Z,7.62
2018-02-05T15:36:25.068Z,7.15
2018-02-05T15:38:52.595Z,6.72
2018-02-05T15:41:20.054Z,7.03
2018-02-05T15:43:47.511Z,6.55
2018-02-05T15:46:14.983Z,7.15
2018-02-05T15:48:42.516Z,6.80
2018-02-05T15:51:10.036Z,8.15
2018-02-05T15:53:37.524Z,7.12
2018-02-05T15:56:05.010Z,7.12
2018-02-05T15:58:32.488Z,8.10
2018-02-05T16:01:01.432Z,7.12
2018-02-05T16:03:28.911Z,7.32
2018-02-05T16:05:56.437Z,6.97
2018-02-05T16:08:23.939Z,6.95
2018-02-05T16:10:52.194Z,6.85
2018-02-05T16:13:19.712Z,6.65
2018-02-05T16:15:47.348Z,5.50
2018-02-05T16:18:16.340Z,5.80
2018-02-05T16:20:43.816Z,5.80
2018-02-05T16:23:11.337Z,5.93
2018-02-05T16:25:39.623Z,5.72
2018-02-05T16:28:07.103Z,6.50
2018-02-05T16:30:34.602Z,5.40
2018-02-05T16:33:02.061Z,6.18
2018-02-05T16:35:29.596Z,6.28
2018-02-05T16:37:57.044Z,6.07
2018-02-05T16:40:26.639Z,6.10
2018-02-05T16:42:55.052Z,5.68
2018-02-05T16:45:22.653Z,5.65
2018-02-05T16:47:50.093Z,6.68
2018-02-05T16:50:17.587Z,5.82
2018-02-05T16:52:45.047Z,6.32
2018-02-05T16:55:12.584Z,5.18
2018-02-05T16:57:40.053Z,5.90
2018-02-05T17:00:08.340Z,6.47
2018-02-05T17:02:35.786Z,6.05
2018-02-05T17:05:03.245Z,6.25
2018-02-05T17:07:30.775Z,5.43
2018-02-05T17:09:58.228Z,5.78
2018-02-05T17:12:25.742Z,5.82
2018-02-05T17:14:53.303Z,5.87
2018-02-05T17:17:20.808Z,6.80
2018-02-05T17:19:49.008Z,6.40
2018-02-05T17:22:16.465Z,6.22
2018-02-05T17:24:43.993Z,6.62
2018-02-05T17:27:12.276Z,7.37
2018-02-05T17:29:39.767Z,6.68
2018-02-05T17:32:07.943Z,6.53
2018-02-05T17:34:35.556Z,7.15
2018-02-05T17:37:03.054Z,6.30
2018-02-05T17:39:30.639Z,6.28
2018-02-05T17:41:58.105Z,7.40
2018-02-05T17:44:25.607Z,6.55
2018-02-05T17:46:53.223Z,6.30
2018-02-05T17:49:20.780Z,7.78
2018-02-05T17:51:48.245Z,6.78
2018-02-05T17:54:15.716Z,7.28
2018-02-05T17:56:43.192Z,7.03
2018-02-05T17:59:10.711Z,7.57
2018-02-05T18:01:38.286Z,6.35
2018-02-05T18:04:05.800Z,6.80
2018-02-05T18:06:33.333Z,7.00
2018-02-05T18:09:00.916Z,6.70
2018-02-05T18:11:28.426Z,6.60
2018-02-05T18:13:55.912Z,7.37
2018-02-05T18:16:23.369Z,7.20
2018-02-05T18:18:50.807Z,7.90
2018-02-05T18:21:18.308Z,8.15
2018-02-05T18:23:45.774Z,8.10
2018-02-05T18:26:13.334Z,7.37
2018-02-05T18:28:40.805Z,6.95
2018-02-05T18:31:09.023Z,7.72
2018-02-05T18:33:36.504Z,8.23
2018-02-05T18:36:04.044Z,7.87
2018-02-05T18:38:31.498Z,8.73
2018-02-05T18:40:58.970Z,7.75
2018-02-05T18:43:26.418Z,8.68
2018-02-05T18:45:53.864Z,7.65
2018-02-05T18:48:21.394Z,8.50
2018-02-05T18:50:49.199Z,7.97
2018-02-05T18:53:16.655Z,8.73
2018-02-05T18:55:44.658Z,7.03
2018-02-05T18:58:12.091Z,9.98
2018-02-05T19:00:48.978Z,8.40
2018-02-05T19:03:16.514Z,8.40
2018-02-05T19:05:44.005Z,10.25
2018-02-05T19:08:11.441Z,9.27
2018-02-05T19:10:38.976Z,10.20
2018-02-05T19:13:06.462Z,9.52
2018-02-05T19:15:33.953Z,9.27
2018-02-05T19:18:01.464Z,10.82
2018-02-05T19:20:29.068Z,9.20
2018-02-05T19:22:56.587Z,9.40
2018-02-05T19:25:24.149Z,9.35
2018-02-05T19:27:51.655Z,9.65
2018-02-05T19:30:19.158Z,10.52
2018-02-05T19:32:47.022Z,10.10
2018-02-05T19:35:14.563Z,10.82
2018-02-05T19:37:42.088Z,11.45
2018-02-05T19:40:09.594Z,10.43
2018-02-05T19:42:37.876Z,9.93
2018-02-05T19:45:05.940Z,9.77
2018-02-05T19:47:33.679Z,10.43
2018-02-05T19:50:01.348Z,10.07
2018-02-05T19:52:29.057Z,12.32
2018-02-05T19:54:57.722Z,12.10
2018-02-05T19:57:26.964Z,10.10
2018-02-05T19:59:56.042Z,12.32
2018-02-05T20:02:23.580Z,10.35
2018-02-05T20:04:51.159Z,10.88
2018-02-05T20:07:19.493Z,9.95
2018-02-05T20:09:47.067Z,11.90
2018-02-05T20:12:14.567Z,10.77
2018-02-05T20:14:42.796Z,9.80
2018-02-05T20:17:11.103Z,10.80
2018-02-05T20:19:40.431Z,11.40
2018-02-05T20:22:08.071Z,10.10
2018-02-05T20:24:35.705Z,11.35
2018-02-05T20:27:03.230Z,10.88
2018-02-05T20:29:30.832Z,10.10
2018-02-05T20:31:58.456Z,10.43
2018-02-05T20:34:26.075Z,10.65
2018-02-05T20:36:53.731Z,11.45
2018-02-05T20:39:22.035Z,10.90
2018-02-05T20:41:49.605Z,11.40
2018-02-05T20:44:17.241Z,12.07
2018-02-05T20:46:44.981Z,12.05
2018-02-05T20:49:13.288Z,11.98
2018-02-05T20:51:41.032Z,10.38
2018-02-05T20:54:08.920Z,11.18
2018-02-05T20:56:36.509Z,11.00
2018-02-05T20:59:04.084Z,11.25
2018-02-05T21:01:32.617Z,14.27
2018-02-05T21:04:00.143Z,12.07
2018-02-05T21:06:27.768Z,11.20
2018-02-05T21:08:57.018Z,12.80
2018-02-05T21:11:24.621Z,11.88
2018-02-05T21:13:52.203Z,13.07
2018-02-05T21:29:20.299Z,11.85
2018-02-05T21:31:47.921Z,12.35
2018-02-05T21:34:16.555Z,13.30
2018-02-05T21:36:44.263Z,11.40
2018-02-05T21:39:12.001Z,12.15
2018-02-05T21:41:39.520Z,12.75
2018-02-05T21:44:07.041Z,12.85
2018-02-05T21:46:35.411Z,11.00
2018-02-05T21:49:03.469Z,12.00
2018-02-05T21:51:31.672Z,12.90
2018-02-05T21:54:00.026Z,12.73
2018-02-05T21:56:27.631Z,12.43
2018-02-05T21:58:55.244Z,11.77
2018-02-05T22:01:22.965Z,12.25
2018-02-05T22:03:50.494Z,12.25
2018-02-05T22:06:17.990Z,11.15
2018-02-05T22:08:45.438Z,13.05
2018-02-05T22:11:12.952Z,12.80
2018-02-05T22:13:40.459Z,12.80
2018-02-05T22:16:07.989Z,12.70
2018-02-05T22:18:35.397Z,11.00
2018-02-05T22:21:02.939Z,11.75
2018-02-05T22:23:30.430Z,12.30
2018-02-05T22:25:57.908Z,12.32
2018-02-05T22:28:25.515Z,12.52
2018-02-05T22:30:53.000Z,12.70
2018-02-05T22:33:21.230Z,12.88
2018-02-05T22:35:48.731Z,11.68
2018-02-05T22:38:16.606Z,11.80
2018-02-05T22:40:44.872Z,11.85
2018-02-05T22:43:12.338Z,12.13
2018-02-05T22:45:39.897Z,11.75
2018-02-05T22:48:07.427Z,10.63
2018-02-05T22:50:34.976Z,11.82
2018-02-05T22:53:02.458Z,11.85
2018-02-05T22:55:29.960Z,11.45
2018-02-05T22:57:57.472Z,11.20
2018-02-05T23:00:24.951Z,11.73
2018-02-05T23:02:52.458Z,11.23
2018-02-05T23:05:20.020Z,11.63
2018-02-05T23:07:47.535Z,11.45
2018-02-05T23:10:15.102Z,13.68
2018-02-05T23:12:42.651Z,11.30
2018-02-05T23:15:10.123Z,12.82
2018-02-05T23:17:37.616Z,12.20
2018-02-05T23:20:05.233Z,11.60
2018-02-05T23:22:32.713Z,12.25
2018-02-05T23:25:00.196Z,12.10
2018-02-05T23:27:27.723Z,12.02
2018-02-05T23:29:56.075Z,12.15
2018-02-05T23:32:23.606Z,11.40
2018-02-05T23:34:51.068Z,11.88
2018-02-05T23:37:18.566Z,11.63
2018-02-05T23:39:46.015Z,10.73
2018-02-05T23:42:17.524Z,13.27
2018-02-05T23:44:45.816Z,10.23
2018-02-05T23:47:14.062Z,11.75
2018-02-05T23:49:41.582Z,11.10
2018-02-05T23:52:09.226Z,11.85
2018-02-05T23:54:36.679Z,13.02
2018-02-05T23:57:04.139Z,12.80
2018-02-05T23:59:31.701Z,10.80
